Time;durP1;ratioP1;P1;durP2;ratioP2;P2;SDS_P1;SDS_P2;PMS_P1;PMS_P2;Temp;Humidity;BMP_temperature;BMP_pressure;BME280_temperature;BME280_humidity;BME280_pressure;Samples;Min_cycle;Max_cycle;Signal;HPM_P1;HPM_P2
2023/08/06 00:00:41;;;;;;;2.25;1.70;;;;;;;15.43;81.41;92190.44;2033752;70;20140;-81
2023/08/06 00:03:06;;;;;;;8.18;1.60;;;;;;;15.41;81.20;92193.22;2037866;70;20593;-81
2023/08/06 00:05:33;;;;;;;3.15;1.58;;;;;;;15.35;81.84;92190.91;2038074;70;20179;-81
2023/08/06 00:07:58;;;;;;;6.07;1.60;;;;;;;15.36;81.98;92200.16;2037974;70;20153;-80
2023/08/06 00:10:24;;;;;;;7.68;1.70;;;;;;;15.39;82.40;92193.88;2037749;70;20538;-81
2023/08/06 00:12:50;;;;;;;5.20;1.50;;;;;;;15.37;82.35;92195.94;2037722;70;20259;-82
2023/08/06 00:15:15;;;;;;;7.90;1.58;;;;;;;15.39;82.07;92195.97;2037998;70;20242;-82
2023/08/06 00:17:41;;;;;;;3.38;1.38;;;;;;;15.41;81.44;92188.28;2037515;70;20207;-81
2023/08/06 00:20:07;;;;;;;2.90;1.40;;;;;;;15.45;81.12;92184.88;2037737;70;20644;-81
2023/08/06 00:22:34;;;;;;;4.65;1.52;;;;;;;15.43;80.92;92187.63;2037857;70;20635;-82
2023/08/06 00:25:00;;;;;;;8.88;1.60;;;;;;;15.38;81.54;92192.44;2038344;70;20167;-82
2023/08/06 00:27:26;;;;;;;6.78;1.55;;;;;;;15.34;81.61;92185.88;2040978;70;20631;-84
2023/08/06 00:29:52;;;;;;;1.88;1.40;;;;;;;15.37;82.00;92195.94;2040682;70;20910;-81
2023/08/06 00:32:18;;;;;;;4.57;1.50;;;;;;;15.42;81.74;92186.91;2037658;70;20174;-81
2023/08/06 00:34:43;;;;;;;2.08;1.50;;;;;;;15.37;82.21;92182.47;2040855;70;20173;-85
2023/08/06 00:37:09;;;;;;;3.65;1.70;;;;;;;15.37;81.97;92187.41;2040952;70;20150;-81
2023/08/06 00:39:34;;;;;;;3.25;1.25;;;;;;;15.37;81.91;92181.75;2040970;70;20618;-82
2023/08/06 00:42:00;;;;;;;4.65;1.65;;;;;;;15.39;82.28;92187.47;2040892;70;20170;-80
2023/08/06 00:44:25;;;;;;;4.20;1.65;;;;;;;15.23;82.92;92182.69;2041010;70;20597;-79
2023/08/06 00:46:51;;;;;;;5.97;1.40;;;;;;;15.38;81.82;92183.19;2041281;70;20151;-80
2023/08/06 00:49:17;;;;;;;7.55;1.50;;;;;;;15.39;82.16;92178.97;2041327;70;20231;-80
2023/08/06 00:51:44;;;;;;;7.07;1.73;;;;;;;15.38;82.16;92183.91;2041155;70;20163;-80
2023/08/06 00:54:10;;;;;;;10.18;1.50;;;;;;;15.28;82.15;92180.72;2040842;70;20149;-81
2023/08/06 00:56:37;;;;;;;5.88;1.52;;;;;;;15.22;81.39;92177.69;2040732;70;20189;-81
2023/08/06 00:59:06;;;;;;;3.47;1.60;;;;;;;15.27;82.51;92184.22;2038007;70;20608;-81
2023/08/06 01:01:32;;;;;;;4.30;1.42;;;;;;;15.29;82.30;92173.66;2038008;70;20210;-81
2023/08/06 01:03:58;;;;;;;10.43;1.67;;;;;;;15.24;82.63;92189.09;2041234;70;20189;-81
2023/08/06 01:06:58;;;;;;;7.32;1.50;;;;;;;15.30;82.95;92182.91;2038071;70;20144;-81
2023/08/06 01:09:45;;;;;;;2.40;1.30;;;;;;;15.29;82.43;92184.28;2041030;70;20238;-81
2023/08/06 01:12:30;;;;;;;2.58;1.70;;;;;;;15.22;82.87;92180.53;2041466;70;20144;-80
2023/08/06 01:15:13;;;;;;;2.15;1.60;;;;;;;15.18;82.35;92186.06;2040749;70;20162;-80
2023/08/06 01:17:40;;;;;;;3.90;1.40;;;;;;;14.81;84.77;92187.56;2038060;70;20506;-81
2023/08/06 01:20:06;;;;;;;2.42;1.80;;;;;;;15.06;83.76;92185.59;2041093;70;20151;-82
2023/08/06 01:22:36;;;;;;;4.93;1.70;;;;;;;15.15;83.25;92178.84;2037833;70;20242;-81
2023/08/06 01:25:01;;;;;;;4.57;1.90;;;;;;;15.18;83.26;92181.09;2040883;70;20144;-82
2023/08/06 01:27:45;;;;;;;3.30;1.48;;;;;;;15.14;83.40;92185.91;2037593;70;20187;-81
2023/08/06 01:30:27;;;;;;;7.93;1.63;;;;;;;15.24;83.21;92194.75;2037237;70;20179;-82
2023/08/06 01:33:04;;;;;;;3.15;1.65;;;;;;;15.11;84.32;92202.09;2041066;70;20167;-82
2023/08/06 01:35:30;;;;;;;4.40;2.75;;;;;;;15.17;83.36;92199.50;2040770;70;20850;-81
2023/08/06 01:37:59;;;;;;;1.85;1.50;;;;;;;15.20;82.88;92191.78;2037996;70;20633;-81
2023/08/06 01:40:27;;;;;;;7.25;1.55;;;;;;;15.15;83.50;92193.75;2041135;70;20211;-81
2023/08/06 01:42:52;;;;;;;2.28;1.60;;;;;;;15.24;82.74;92194.75;2037556;70;20239;-81
2023/08/06 01:45:18;;;;;;;4.82;1.80;;;;;;;15.12;82.86;92192.25;2040744;70;20625;-81
2023/08/06 01:47:44;;;;;;;3.72;1.65;;;;;;;15.20;82.02;92183.28;2037711;70;20211;-81
2023/08/06 01:50:09;;;;;;;5.38;1.70;;;;;;;15.18;82.68;92194.56;2040834;70;20273;-81
2023/08/06 01:52:35;;;;;;;4.35;2.00;;;;;;;15.19;82.21;92176.88;2040761;70;20163;-82
2023/08/06 01:55:01;;;;;;;2.72;1.55;;;;;;;15.13;81.44;92187.28;2040956;70;20239;-80
2023/08/06 01:57:27;;;;;;;2.60;1.45;;;;;;;15.18;81.93;92186.06;2040774;70;20394;-80
2023/08/06 01:59:53;;;;;;;7.45;1.73;;;;;;;15.23;81.50;92184.81;2037431;70;20617;-81
2023/08/06 02:02:19;;;;;;;1.63;1.50;;;;;;;15.20;82.03;92178.31;2040847;70;20190;-81
2023/08/06 02:04:46;;;;;;;5.50;1.50;;;;;;;15.20;81.39;92180.44;2037811;70;20183;-80
2023/08/06 02:07:12;;;;;;;3.10;1.80;;;;;;;15.10;81.78;92180.09;2040849;70;20266;-80
2023/08/06 02:09:38;;;;;;;6.40;1.73;;;;;;;15.07;81.84;92170.03;2041196;70;20147;-81
2023/08/06 02:12:04;;;;;;;1.70;1.60;;;;;;;15.10;80.95;92168.75;2037862;70;20246;-81
2023/08/06 02:14:30;;;;;;;2.35;1.50;;;;;;;15.06;82.16;92171.44;2037670;70;20231;-81
2023/08/06 02:16:55;;;;;;;4.10;1.55;;;;;;;14.91;82.26;92167.38;2040956;70;20146;-80
2023/08/06 02:19:22;;;;;;;1.90;1.70;;;;;;;15.00;79.08;92149.28;2037538;70;20238;-81
2023/08/06 02:21:47;;;;;;;3.33;2.00;;;;;;;15.06;79.14;92140.97;2040616;70;20651;-80
2023/08/06 02:24:14;;;;;;;4.63;1.88;;;;;;;14.72;80.71;92124.19;2040813;70;20246;-80
2023/08/06 02:26:40;;;;;;;2.90;1.83;;;;;;;14.41;84.08;92127.25;2037385;70;20598;-80
2023/08/06 02:29:06;;;;;;;3.42;1.90;;;;;;;14.52;83.55;92125.56;2037345;70;20244;-80
2023/08/06 02:31:31;;;;;;;3.33;1.63;;;;;;;14.55;84.38;92119.31;2037739;70;20156;-80
2023/08/06 02:33:58;;;;;;;4.35;2.20;;;;;;;14.64;83.62;92121.06;2041063;70;20163;-81
2023/08/06 02:36:24;;;;;;;6.13;2.20;;;;;;;14.71;82.49;92119.91;2040380;70;20529;-81
2023/08/06 02:38:50;;;;;;;3.20;1.98;;;;;;;14.54;82.22;92115.03;2041242;70;20601;-81
2023/08/06 02:41:15;;;;;;;7.03;1.95;;;;;;;14.43;84.11;92119.59;2038330;70;20147;-81
2023/08/06 02:43:41;;;;;;;4.97;1.73;;;;;;;14.39;83.90;92121.53;2038721;70;20152;-82
2023/08/06 02:46:07;;;;;;;4.55;2.08;;;;;;;14.50;83.39;92120.56;2041897;70;20156;-82
2023/08/06 02:48:33;;;;;;;5.53;1.98;;;;;;;14.58;83.16;92126.53;2038836;70;20178;-83
2023/08/06 02:50:59;;;;;;;1.98;1.73;;;;;;;14.55;82.49;92122.16;2038956;70;20256;-80
2023/08/06 02:53:26;;;;;;;6.72;1.90;;;;;;;14.50;82.55;92117.72;2038992;70;20135;-83
2023/08/06 02:55:53;;;;;;;3.10;1.73;;;;;;;14.39;82.64;92122.25;2041971;70;20155;-80
2023/08/06 02:58:24;;;;;;;6.20;1.63;;;;;;;14.45;81.74;92119.66;2038633;70;20144;-81
2023/08/06 03:01:18;;;;;;;2.95;1.70;;;;;;;14.47;82.15;92116.88;2038671;70;20563;-81
2023/08/06 03:03:53;;;;;;;3.28;1.80;;;;;;;14.45;82.37;92113.97;2038728;70;20646;-81
2023/08/06 03:06:25;;;;;;;2.42;1.60;;;;;;;14.41;82.26;92105.34;2038645;70;20513;-80
2023/08/06 03:08:53;;;;;;;4.43;1.80;;;;;;;14.29;82.49;92106.97;2038895;70;20151;-82
2023/08/06 03:11:19;;;;;;;4.93;1.80;;;;;;;14.35;82.46;92115.72;2038819;70;20162;-82
2023/08/06 03:13:47;;;;;;;4.30;1.83;;;;;;;14.43;81.63;92122.41;2038463;70;20182;-81
2023/08/06 03:16:13;;;;;;;3.80;1.90;;;;;;;14.43;82.22;92116.00;2038618;70;20142;-81
2023/08/06 03:18:39;;;;;;;8.07;1.80;;;;;;;14.43;82.18;92119.59;2041976;70;20151;-82
2023/08/06 03:21:07;;;;;;;4.80;2.08;;;;;;;14.47;82.02;92118.97;2038714;70;20158;-82
2023/08/06 03:23:32;;;;;;;2.60;1.60;;;;;;;14.50;82.57;92120.56;2038422;70;20147;-82
2023/08/06 03:26:02;;;;;;;4.25;1.63;;;;;;;14.48;81.86;92121.22;2041652;70;20135;-82
2023/08/06 03:28:29;;;;;;;4.13;1.80;;;;;;;14.49;82.09;92119.81;2038373;70;20231;-82
2023/08/06 03:31:03;;;;;;;5.63;1.88;;;;;;;14.46;81.94;92115.44;2038332;70;20243;-82
2023/08/06 03:33:36;;;;;;;2.38;1.70;;;;;;;14.51;81.53;92121.28;2038425;70;20183;-82
2023/08/06 03:36:04;;;;;;;4.47;1.52;;;;;;;14.47;81.56;92119.72;2042048;70;20526;-81
2023/08/06 03:38:32;;;;;;;3.45;1.50;;;;;;;14.47;81.91;92119.72;2038707;70;20139;-82
2023/08/06 03:40:59;;;;;;;3.25;1.70;;;;;;;14.47;81.84;92119.72;2038801;70;20569;-82
2023/08/06 03:43:25;;;;;;;2.38;1.38;;;;;;;14.49;81.60;92119.81;2038707;70;20672;-82
2023/08/06 03:45:51;;;;;;;4.88;1.40;;;;;;;14.51;80.61;92116.34;2038543;70;20139;-82
2023/08/06 03:48:16;;;;;;;2.65;1.10;;;;;;;14.44;81.14;92108.97;2041717;70;20135;-81
2023/08/06 03:50:42;;;;;;;4.10;1.50;;;;;;;14.46;81.34;92097.72;2038408;70;20245;-81
2023/08/06 03:53:11;;;;;;;1.77;1.30;;;;;;;14.46;81.30;92100.53;2038212;70;20151;-82
2023/08/06 03:55:37;;;;;;;7.22;1.48;;;;;;;14.28;81.53;92085.72;2038301;70;20151;-82
2023/08/06 03:58:03;;;;;;;3.38;1.35;;;;;;;14.33;81.02;92084.47;2038215;70;20180;-82
2023/08/06 04:00:28;;;;;;;2.13;1.48;;;;;;;14.27;80.90;92085.00;2041454;70;20497;-82
2023/08/06 04:02:55;;;;;;;2.10;1.42;;;;;;;14.26;80.95;92080.72;2037867;70;20167;-82
2023/08/06 04:05:21;;;;;;;3.05;1.60;;;;;;;14.13;81.45;92084.47;2037993;70;20154;-82
2023/08/06 04:07:46;;;;;;;3.08;1.30;;;;;;;14.20;81.36;92074.81;2039314;70;20136;-82
2023/08/06 04:10:13;;;;;;;3.45;1.17;;;;;;;14.12;81.39;92066.03;2038525;70;20257;-82
2023/08/06 04:12:39;;;;;;;2.15;1.40;;;;;;;14.07;80.73;92061.59;2038358;70;20215;-82
2023/08/06 04:15:05;;;;;;;1.67;1.30;;;;;;;13.89;81.46;92065.19;2037630;70;20156;-82
2023/08/06 04:17:31;;;;;;;2.80;1.35;;;;;;;13.88;81.00;92065.81;2038458;70;20155;-82
2023/08/06 04:19:59;;;;;;;3.53;1.85;;;;;;;13.80;81.84;92074.72;2037866;70;20155;-82
2023/08/06 04:22:25;;;;;;;2.72;1.80;;;;;;;13.83;81.27;92070.59;2038020;70;20537;-82
2023/08/06 04:24:51;;;;;;;2.40;1.60;;;;;;;13.77;81.54;92072.47;2037890;70;20689;-81
2023/08/06 04:27:18;;;;;;;2.20;1.65;;;;;;;13.70;81.85;92080.00;2038423;70;20144;-82
2023/08/06 04:29:44;;;;;;;3.58;2.08;;;;;;;13.80;81.61;92086.03;2037685;70;20187;-82
2023/08/06 04:32:12;;;;;;;6.85;1.80;;;;;;;13.87;81.07;92099.03;2037760;70;20235;-82
2023/08/06 04:34:43;;;;;;;9.40;2.90;;;;;;;13.89;81.08;92089.91;2037881;70;20166;-82
2023/08/06 04:37:09;;;;;;;5.45;2.75;;;;;;;13.86;81.33;92091.22;2037814;70;20172;-82
2023/08/06 04:39:34;;;;;;;2.78;1.73;;;;;;;13.87;80.47;92096.22;2037824;70;20147;-81
2023/08/06 04:42:00;;;;;;;3.58;1.50;;;;;;;13.91;80.64;92093.53;2037763;70;20143;-82
2023/08/06 04:44:27;;;;;;;2.08;1.10;;;;;;;13.81;80.78;92084.66;2037663;70;20144;-82
2023/08/06 04:46:52;;;;;;;2.05;1.60;;;;;;;13.56;82.38;92073.75;2037843;70;20224;-81
2023/08/06 04:49:20;;;;;;;3.17;1.90;;;;;;;13.76;81.96;92071.75;2038350;70;20159;-82
2023/08/06 04:51:46;;;;;;;2.30;1.55;;;;;;;13.91;81.29;92084.31;2038274;70;20163;-82
2023/08/06 04:54:11;;;;;;;3.63;1.42;;;;;;;13.96;80.94;92092.31;2037743;70;20142;-82
2023/08/06 04:56:37;;;;;;;2.88;1.40;;;;;;;14.01;81.15;92093.19;2038309;70;20210;-82
2023/08/06 04:59:03;;;;;;;2.92;1.20;;;;;;;13.93;81.08;92087.25;2038317;70;20296;-81
2023/08/06 05:01:28;;;;;;;4.05;1.30;;;;;;;13.93;81.46;92087.25;2039411;70;20601;-82
2023/08/06 05:03:54;;;;;;;3.50;1.40;;;;;;;13.98;81.20;92088.84;2041510;70;20545;-82
2023/08/06 05:06:19;;;;;;;1.90;1.35;;;;;;;14.10;80.55;92089.31;2041510;70;20140;-82
2023/08/06 05:08:45;;;;;;;4.03;1.50;;;;;;;14.12;80.57;92097.16;2041481;70;20593;-82
2023/08/06 05:11:11;;;;;;;1.95;1.40;;;;;;;14.09;80.61;92098.44;2038285;70;20153;-82
2023/08/06 05:13:36;;;;;;;6.50;1.40;;;;;;;14.17;80.03;92104.44;2041391;70;20139;-82
2023/08/06 05:16:02;;;;;;;3.13;1.45;;;;;;;14.15;80.40;92104.34;2041480;70;20135;-82
2023/08/06 05:18:28;;;;;;;2.25;1.25;;;;;;;14.16;80.29;92105.81;2041561;70;20177;-82
2023/08/06 05:20:53;;;;;;;4.60;1.45;;;;;;;13.99;81.11;92105.19;2041593;70;20148;-82
2023/08/06 05:23:19;;;;;;;2.75;1.40;;;;;;;14.13;80.43;92109.94;2041535;70;20150;-82
2023/08/06 05:25:44;;;;;;;5.10;1.77;;;;;;;14.02;81.05;92091.84;2041579;70;20151;-82
2023/08/06 05:28:10;;;;;;;3.08;1.80;;;;;;;13.63;82.57;92095.25;2041598;70;20147;-82
2023/08/06 05:30:39;;;;;;;3.45;1.85;;;;;;;13.69;82.23;92087.00;2041465;70;20666;-82
2023/08/06 05:33:05;;;;;;;6.03;1.70;;;;;;;13.89;80.85;92085.00;2041570;70;20155;-82
2023/08/06 05:35:30;;;;;;;4.78;1.55;;;;;;;13.93;81.13;92085.16;2041772;70;20233;-82
2023/08/06 05:37:56;;;;;;;8.63;1.40;;;;;;;13.99;79.99;92070.50;2041759;70;20144;-82
2023/08/06 05:40:21;;;;;;;4.10;1.20;;;;;;;13.93;81.08;92062.50;2041466;70;20139;-82
2023/08/06 05:42:47;;;;;;;4.60;1.20;;;;;;;13.96;81.08;92066.13;2040064;70;20558;-81
2023/08/06 05:45:12;;;;;;;2.28;1.35;;;;;;;13.96;80.71;92066.13;2038187;70;20152;-81
2023/08/06 05:47:38;;;;;;;3.88;1.27;;;;;;;13.88;80.50;92066.56;2038343;70;20286;-81
2023/08/06 05:50:04;;;;;;;4.07;1.42;;;;;;;13.91;80.47;92068.06;2038349;70;20594;-81
2023/08/06 05:52:29;;;;;;;1.73;1.30;;;;;;;13.84;80.73;92068.50;2038154;70;20594;-81
2023/08/06 05:54:55;;;;;;;6.38;1.45;;;;;;;14.13;81.19;92070.31;2037734;70;20139;-81
2023/08/06 05:57:21;;;;;;;3.97;1.30;;;;;;;14.37;80.50;92071.19;2038664;70;20155;-82
2023/08/06 05:59:46;;;;;;;3.03;1.52;;;;;;;14.50;79.95;92075.25;2038380;70;20318;-82
2023/08/06 06:02:12;;;;;;;2.45;1.50;;;;;;;14.57;79.45;92079.00;2038219;70;20166;-82
2023/08/06 06:04:37;;;;;;;3.33;1.77;;;;;;;14.52;79.09;92083.78;2038343;70;20167;-81
2023/08/06 06:07:03;;;;;;;3.05;1.77;;;;;;;14.74;79.05;92093.09;2038319;70;20525;-81
2023/08/06 06:09:29;;;;;;;4.32;1.70;;;;;;;14.78;79.64;92091.81;2038279;70;20146;-82
2023/08/06 06:11:54;;;;;;;2.05;1.65;;;;;;;14.83;79.19;92096.22;2038145;70;20529;-81
2023/08/06 06:14:20;;;;;;;1.67;1.50;;;;;;;14.79;78.07;92088.31;2038211;70;20540;-82
2023/08/06 06:16:45;;;;;;;4.88;1.38;;;;;;;14.68;78.02;92086.50;2038530;70;20577;-81
2023/08/06 06:19:12;;;;;;;3.83;1.80;;;;;;;14.80;77.35;92083.34;2039195;70;20158;-80
2023/08/06 06:21:38;;;;;;;4.20;1.70;;;;;;;14.84;77.92;92084.22;2039094;70;20155;-82
2023/08/06 06:24:05;;;;;;;1.63;1.50;;;;;;;14.86;78.13;92077.94;2039175;70;20498;-82
2023/08/06 06:26:31;;;;;;;1.65;1.52;;;;;;;14.98;77.54;92079.09;2039112;70;20520;-82
2023/08/06 06:28:58;;;;;;;6.88;1.83;;;;;;;15.01;76.84;92068.53;2038992;70;20148;-83
2023/08/06 06:31:23;;;;;;;3.20;1.85;;;;;;;15.25;77.80;92068.63;2039104;70;20240;-84
2023/08/06 06:33:49;;;;;;;7.07;1.60;;;;;;;15.37;77.18;92054.13;2039241;70;20148;-83
2023/08/06 06:36:14;;;;;;;4.40;1.70;;;;;;;14.99;76.92;92060.69;2038714;70;20227;-80
2023/08/06 06:38:40;;;;;;;3.45;1.90;;;;;;;15.11;75.88;92065.31;2039287;70;20144;-83
2023/08/06 06:41:05;;;;;;;3.13;1.67;;;;;;;15.18;74.95;92062.03;2039297;70;20152;-82
2023/08/06 06:43:32;;;;;;;3.08;1.50;;;;;;;15.46;75.99;92061.53;2039188;70;20144;-81
2023/08/06 06:46:00;;;;;;;1.90;1.38;;;;;;;15.62;75.77;92066.97;2039228;70;20609;-82
2023/08/06 06:48:27;;;;;;;3.22;1.60;;;;;;;15.48;73.14;92067.97;2039081;70;20208;-83
2023/08/06 06:50:55;;;;;;;1.48;1.23;;;;;;;15.64;73.15;92072.75;2039102;70;20636;-84
2023/08/06 06:53:23;;;;;;;1.92;1.42;;;;;;;15.68;72.45;92075.72;2039066;70;20175;-82
2023/08/06 06:55:49;;;;;;;1.75;1.25;;;;;;;15.72;74.37;92075.84;2039040;70;20254;-83
2023/08/06 06:58:16;;;;;;;3.85;1.42;;;;;;;15.44;72.14;92075.63;2038494;70;20665;-83
2023/08/06 07:00:42;;;;;;;1.70;1.35;;;;;;;15.77;74.89;92079.56;2038822;70;20541;-84
2023/08/06 07:03:07;;;;;;;3.42;1.50;;;;;;;15.67;73.34;92083.53;2038861;70;20166;-82
2023/08/06 07:05:33;;;;;;;2.70;1.50;;;;;;;15.91;72.79;92080.72;2038860;70;20148;-81
2023/08/06 07:07:58;;;;;;;5.30;1.70;;;;;;;15.91;71.55;92089.22;2038829;70;20235;-81
2023/08/06 07:10:24;;;;;;;2.75;1.60;;;;;;;15.95;71.75;92077.28;2039080;70;20152;-80
2023/08/06 07:12:49;;;;;;;2.67;1.65;;;;;;;15.73;71.14;92078.03;2039173;70;20147;-86
2023/08/06 07:15:17;;;;;;;2.95;1.92;;;;;;;15.45;70.89;92066.47;2039818;70;20736;-84
2023/08/06 07:17:43;;;;;;;2.75;1.92;;;;;;;15.33;72.16;92045.47;2039303;70;20553;-85
2023/08/06 07:20:09;;;;;;;3.67;2.00;;;;;;;15.30;73.83;92030.50;2039588;70;20167;-88
2023/08/06 07:22:35;;;;;;;3.10;1.90;;;;;;;15.65;73.12;92017.47;2039343;70;20160;-89
2023/08/06 07:25:01;;;;;;;3.53;1.35;;;;;;;16.06;72.52;92019.41;2039400;70;20156;-90
2023/08/06 07:27:26;;;;;;;2.58;1.63;;;;;;;16.39;72.03;92014.69;2039126;70;20158;-89
2023/08/06 07:29:53;;;;;;;4.82;1.58;;;;;;;16.57;73.23;92005.94;2038918;70;20597;-91
2023/08/06 07:32:18;;;;;;;2.42;1.55;;;;;;;16.55;72.53;91997.38;2038982;70;20309;-91
2023/08/06 07:34:44;;;;;;;3.53;1.92;;;;;;;16.75;71.19;92000.78;2039035;70;20164;-90
2023/08/06 07:37:10;;;;;;;2.42;1.50;;;;;;;16.85;70.53;91998.22;2038660;70;20136;-88
2023/08/06 07:39:37;;;;;;;2.75;1.50;;;;;;;16.82;69.92;92005.25;2038581;70;20257;-85
2023/08/06 07:42:05;;;;;;;2.67;1.55;;;;;;;16.88;66.37;91999.00;2038766;70;20155;-88
2023/08/06 07:44:31;;;;;;;1.67;1.50;;;;;;;16.72;67.06;92004.97;2038459;70;20151;-86
2023/08/06 07:46:57;;;;;;;2.15;1.30;;;;;;;16.88;65.40;92001.84;2038693;70;20242;-87
2023/08/06 07:49:22;;;;;;;2.58;1.40;;;;;;;17.02;65.53;92007.91;2038826;70;20158;-86
2023/08/06 07:51:48;;;;;;;1.73;1.60;;;;;;;16.91;65.99;92014.72;2038666;70;20187;-85
2023/08/06 07:54:13;;;;;;;1.75;1.20;;;;;;;16.90;67.67;92013.25;2038560;70;20262;-88
2023/08/06 07:56:39;;;;;;;2.28;1.55;;;;;;;17.00;69.42;92005.72;2038334;70;20143;-90
2023/08/06 07:59:05;;;;;;;2.92;1.40;;;;;;;16.98;70.11;92005.66;2038377;70;20583;-89
2023/08/06 08:01:30;;;;;;;3.35;1.50;;;;;;;17.02;70.75;92016.44;2038477;70;20185;-89
2023/08/06 08:03:56;;;;;;;4.38;1.40;;;;;;;16.98;72.54;92019.88;2039196;70;20595;-90
2023/08/06 08:06:23;;;;;;;2.40;1.60;;;;;;;17.06;72.43;92025.06;2041116;70;20151;-90
2023/08/06 08:08:48;;;;;;;5.03;1.30;;;;;;;16.92;73.09;92022.56;2041940;70;20201;-90
2023/08/06 08:11:15;;;;;;;5.00;1.40;;;;;;;16.96;72.89;92025.53;2041730;70;20529;-86
2023/08/06 08:13:41;;;;;;;4.15;1.58;;;;;;;17.06;73.23;92035.72;2041444;70;20159;-87
2023/08/06 08:16:07;;;;;;;2.42;1.50;;;;;;;17.07;73.17;92042.84;2041135;70;20159;-89
2023/08/06 08:18:33;;;;;;;4.25;1.55;;;;;;;17.02;73.34;92054.09;2038595;70;20640;-88
2023/08/06 08:20:58;;;;;;;2.80;1.40;;;;;;;17.05;72.78;92052.06;2038255;70;20227;-92
2023/08/06 08:23:24;;;;;;;3.50;1.50;;;;;;;17.17;72.69;92052.34;2041778;70;20536;-86
2023/08/06 08:25:49;;;;;;;2.38;1.70;;;;;;;17.14;72.90;92047.31;2041861;70;20143;-88
2023/08/06 08:28:15;;;;;;;3.65;1.50;;;;;;;17.15;73.87;92060.84;2041828;70;20163;-88
2023/08/06 08:30:41;;;;;;;2.30;1.45;;;;;;;17.18;74.16;92062.34;2043698;70;20146;-88
2023/08/06 08:33:07;;;;;;;1.92;1.50;;;;;;;17.36;73.42;92056.41;2042180;70;20159;-87
2023/08/06 08:35:34;;;;;;;2.60;1.50;;;;;;;17.56;72.59;92053.34;2042274;70;20171;-85
2023/08/06 08:38:00;;;;;;;2.72;1.50;;;;;;;17.83;72.27;92066.13;2042881;70;20147;-91
2023/08/06 08:40:33;;;;;;;2.10;1.60;;;;;;;18.03;72.18;92075.13;2042427;70;20143;-92
2023/08/06 08:43:02;;;;;;;3.80;1.63;;;;;;;17.48;72.89;92085.16;2043490;70;20251;-90
2023/08/06 08:45:29;;;;;;;2.15;1.65;;;;;;;17.64;71.55;92081.25;2043745;70;20158;-90
2023/08/06 08:47:57;;;;;;;2.08;1.40;;;;;;;17.67;69.47;92082.78;2039681;70;20247;-91
2023/08/06 08:50:23;;;;;;;1.60;1.50;;;;;;;17.81;70.18;92096.66;2043053;70;20242;-91
2023/08/06 08:52:50;;;;;;;2.25;1.30;;;;;;;17.53;67.66;92114.44;2042952;70;20171;-90
2023/08/06 08:55:16;;;;;;;2.38;1.50;;;;;;;17.62;69.23;92115.38;2043738;70;20146;-90
2023/08/06 08:57:43;;;;;;;3.13;1.40;;;;;;;17.45;68.66;92123.50;2043403;70;20143;-90
2023/08/06 09:00:09;;;;;;;1.60;1.40;;;;;;;17.61;68.73;92125.31;2043080;70;20246;-90
2023/08/06 09:02:38;;;;;;;1.90;1.30;;;;;;;17.60;69.21;92135.25;2042428;70;20143;-89
2023/08/06 09:05:06;;;;;;;3.60;1.52;;;;;;;17.69;69.98;92137.63;2038755;70;20222;-90
2023/08/06 09:07:38;;;;;;;2.80;1.55;;;;;;;17.55;69.12;92140.13;2041843;70;20219;-88
2023/08/06 09:10:06;;;;;;;3.17;1.50;;;;;;;17.54;68.65;92145.06;2043780;70;20159;-90
2023/08/06 09:12:32;;;;;;;2.83;1.50;;;;;;;17.77;69.18;92139.97;2038986;70;20206;-92
2023/08/06 09:14:58;;;;;;;4.18;1.45;;;;;;;18.12;68.50;92155.06;2038461;70;20159;-89
2023/08/06 09:17:24;;;;;;;3.17;1.90;;;;;;;18.19;67.73;92162.34;2041503;70;20533;-90
2023/08/06 09:19:49;;;;;;;3.47;1.60;;;;;;;18.02;69.06;92173.38;2041531;70;20274;-87
2023/08/06 09:22:15;;;;;;;2.75;1.67;;;;;;;18.06;69.79;92167.06;2041680;70;20143;-86
2023/08/06 09:24:42;;;;;;;2.10;1.88;;;;;;;18.29;68.92;92151.22;2041530;70;20246;-89
2023/08/06 09:27:14;;;;;;;8.80;5.72;;;;;;;18.67;66.84;92168.47;2041700;70;20150;-87
2023/08/06 09:29:45;;;;;;;2.15;1.90;;;;;;;19.03;65.30;92171.44;2041720;70;20147;-89
2023/08/06 09:32:12;;;;;;;2.03;1.70;;;;;;;19.48;64.40;92154.50;2041660;70;20306;-86
2023/08/06 09:34:44;;;;;;;2.53;1.42;;;;;;;20.04;63.47;92157.66;2041855;70;20640;-85
2023/08/06 09:37:14;;;;;;;5.63;2.50;;;;;;;20.49;61.60;92164.16;2041997;70;20143;-87
2023/08/06 09:39:43;;;;;;;2.35;1.58;;;;;;;20.79;59.03;92155.28;2041960;70;20143;-87
2023/08/06 09:42:08;;;;;;;3.97;1.63;;;;;;;20.71;58.60;92149.47;2042086;70;20166;-90
2023/08/06 09:44:34;;;;;;;2.30;1.20;;;;;;;20.02;55.46;92148.31;2042209;70;20173;-87
2023/08/06 09:47:03;;;;;;;1.90;1.40;;;;;;;20.12;53.60;92147.78;2041757;70;20318;-89
2023/08/06 09:49:45;;;;;;;1.65;1.20;;;;;;;21.43;55.46;92150.41;2041716;70;20229;-89
2023/08/06 09:52:12;;;;;;;3.10;1.27;;;;;;;22.20;54.24;92147.66;2041570;70;20143;-89
2023/08/06 09:54:39;;;;;;;4.20;1.30;;;;;;;22.69;52.81;92130.84;2041503;70;20163;-85
2023/08/06 09:57:05;;;;;;;1.13;1.02;;;;;;;23.61;46.11;92128.44;2041183;70;20231;-89
2023/08/06 09:59:32;;;;;;;2.67;1.10;;;;;;;23.03;45.84;92127.47;2042637;70;20173;-88
2023/08/06 10:01:59;;;;;;;1.25;1.02;;;;;;;21.64;46.98;92119.88;2042176;70;20582;-89
2023/08/06 10:04:25;;;;;;;15.40;8.60;;;;;;;21.67;47.30;92115.59;2042146;70;20234;-88
2023/08/06 10:06:50;;;;;;;2.78;1.90;;;;;;;22.42;46.50;92093.34;2038777;70;20256;-86
2023/08/06 10:09:18;;;;;;;1.92;1.20;;;;;;;21.77;44.11;92113.56;2037964;70;20613;-89
2023/08/06 10:11:49;;;;;;;1.00;0.80;;;;;;;21.93;44.73;92103.66;2037682;70;20227;-89
2023/08/06 10:14:24;;;;;;;2.25;0.60;;;;;;;21.21;46.44;92105.03;2040045;70;20182;-89
2023/08/06 10:16:50;;;;;;;1.52;0.77;;;;;;;21.74;45.44;92094.19;2040008;70;20170;-88
2023/08/06 10:19:18;;;;;;;1.40;0.90;;;;;;;21.82;48.82;92082.81;2040593;70;20147;-88
2023/08/06 10:22:16;;;;;;;2.03;1.00;;;;;;;22.39;49.83;92094.75;2040285;70;20255;-83
2023/08/06 10:24:53;;;;;;;0.95;0.80;;;;;;;22.26;42.53;92091.06;2040973;70;20246;-83
2023/08/06 10:27:32;;;;;;;2.40;1.30;;;;;;;21.83;44.87;92076.38;2041073;70;20269;-82
2023/08/06 10:30:32;;;;;;;1.30;1.20;;;;;;;23.49;47.47;92100.38;2040835;70;20162;-85
2023/08/06 10:33:02;;;;;;;1.80;0.80;;;;;;;23.25;44.05;92096.00;2035354;70;20172;-83
2023/08/06 10:35:49;;;;;;;1.60;0.85;;;;;;;24.01;42.46;92091.19;2037101;70;20283;-83
2023/08/06 10:38:15;;;;;;;2.83;0.80;;;;;;;23.04;41.35;92086.56;2037389;70;20179;-82
2023/08/06 10:40:48;;;;;;;1.00;0.90;;;;;;;22.54;43.68;92095.56;2037673;70;20159;-82
2023/08/06 10:43:28;;;;;;;1.15;0.80;;;;;;;21.75;44.35;92102.06;2036902;70;20338;-85
2023/08/06 10:45:55;;;;;;;1.25;1.00;;;;;;;21.34;45.81;92092.34;2037109;70;20159;-83
2023/08/06 10:48:31;;;;;;;1.10;1.00;;;;;;;21.18;46.52;92087.13;2037606;70;20178;-82
2023/08/06 10:50:57;;;;;;;2.22;1.10;;;;;;;20.51;46.79;92092.69;2037602;70;20163;-83
2023/08/06 10:53:22;;;;;;;1.10;0.88;;;;;;;21.14;46.96;92112.84;2037361;70;20170;-83
2023/08/06 10:55:48;;;;;;;1.15;0.73;;;;;;;20.76;46.66;92110.19;2037853;70;20436;-83
2023/08/06 10:58:16;;;;;;;1.95;1.65;;;;;;;20.92;49.52;92118.28;2037726;70;20164;-84
2023/08/06 11:00:42;;;;;;;1.70;1.40;;;;;;;20.75;47.96;92115.19;2037592;70;20205;-86
2023/08/06 11:03:08;;;;;;;2.55;1.95;;;;;;;20.92;47.56;92121.13;2034403;70;20171;-85
2023/08/06 11:05:35;;;;;;;2.50;2.30;;;;;;;21.43;48.94;92118.91;2038325;70;20156;-83
2023/08/06 11:08:01;;;;;;;1.45;0.80;;;;;;;21.73;49.71;92124.25;2038224;70;20626;-82
2023/08/06 11:10:26;;;;;;;0.80;0.80;;;;;;;20.88;47.97;92124.66;2038112;70;20155;-83
2023/08/06 11:12:52;;;;;;;0.73;0.70;;;;;;;20.18;48.35;92128.59;2038251;70;20151;-83
2023/08/06 11:15:20;;;;;;;1.83;1.70;;;;;;;20.32;49.36;92136.69;2037553;70;20169;-84
2023/08/06 11:17:46;;;;;;;1.27;1.05;;;;;;;20.64;49.41;92138.63;2037295;70;20160;-84
2023/08/06 11:20:12;;;;;;;1.15;0.98;;;;;;;20.67;52.54;92148.69;2039321;70;20140;-84
2023/08/06 11:22:38;;;;;;;1.27;0.80;;;;;;;20.57;52.62;92169.25;2038602;70;20163;-84
2023/08/06 11:25:06;;;;;;;1.02;0.75;;;;;;;20.38;51.47;92171.06;2041507;70;20568;-82
2023/08/06 11:27:32;;;;;;;1.95;0.90;;;;;;;20.46;50.95;92179.78;2041442;70;20231;-82
2023/08/06 11:29:57;;;;;;;3.00;0.80;;;;;;;20.43;56.91;92189.72;2041436;70;20627;-82
2023/08/06 11:32:23;;;;;;;1.38;0.88;;;;;;;20.62;54.27;92187.19;2041353;70;20605;-84
2023/08/06 11:34:49;;;;;;;1.75;0.80;;;;;;;20.66;50.39;92187.25;2041243;70;20174;-84